sensor_id;sensor_type;location;lat;lon;timestamp;pressure;altitude;pressure_sealevel;temperature;humidity
46392;BME280;32098;49.448;7.904;2023-05-11T00:00:35;97949.22;;;8.41;73.02
46392;BME280;32098;49.448;7.904;2023-05-11T00:03:02;97970.84;;;8.45;73.21
46392;BME280;32098;49.448;7.904;2023-05-11T00:05:29;97971.16;;;8.37;73.90
46392;BME280;32098;49.448;7.904;2023-05-11T00:07:55;97961.53;;;8.18;75.29
46392;BME280;32098;49.448;7.904;2023-05-11T00:10:22;97962.59;;;8.17;75.34
46392;BME280;32098;49.448;7.904;2023-05-11T00:12:48;97961.63;;;8.11;75.49
46392;BME280;32098;49.448;7.904;2023-05-11T00:15:15;97964.03;;;8.13;75.76
46392;BME280;32098;49.448;7.904;2023-05-11T00:17:41;97960.47;;;8.01;76.30
46392;BME280;32098;49.448;7.904;2023-05-11T00:20:08;97970.25;;;8.07;75.46
46392;BME280;32098;49.448;7.904;2023-05-11T00:22:35;97971.03;;;7.89;76.57
46392;BME280;32098;49.448;7.904;2023-05-11T00:25:01;97968.72;;;7.74;77.57
46392;BME280;32098;49.448;7.904;2023-05-11T00:27:28;97964.75;;;7.59;78.07
46392;BME280;32098;49.448;7.904;2023-05-11T00:29:55;97966.25;;;7.48;78.72
46392;BME280;32098;49.448;7.904;2023-05-11T00:32:21;97959.91;;;7.49;79.86
46392;BME280;32098;49.448;7.904;2023-05-11T00:34:48;97924.31;;;7.25;79.17
46392;BME280;32098;49.448;7.904;2023-05-11T00:37:15;97963.44;;;7.43;79.66
46392;BME280;32098;49.448;7.904;2023-05-11T00:39:41;97966.16;;;7.37;80.60
46392;BME280;32098;49.448;7.904;2023-05-11T00:42:09;97957.09;;;7.44;79.71
46392;BME280;32098;49.448;7.904;2023-05-11T00:44:36;97954.94;;;7.59;79.54
46392;BME280;32098;49.448;7.904;2023-05-11T00:47:03;97956.13;;;7.63;79.38
46392;BME280;32098;49.448;7.904;2023-05-11T00:49:30;97961.00;;;7.66;78.85
46392;BME280;32098;49.448;7.904;2023-05-11T00:51:56;97960.28;;;7.77;78.75
46392;BME280;32098;49.448;7.904;2023-05-11T00:54:23;97960.00;;;7.85;77.98
46392;BME280;32098;49.448;7.904;2023-05-11T00:56:50;97953.09;;;7.84;77.40
46392;BME280;32098;49.448;7.904;2023-05-11T00:59:17;97959.66;;;7.82;77.21
46392;BME280;32098;49.448;7.904;2023-05-11T01:01:44;97961.16;;;7.96;76.06
46392;BME280;32098;49.448;7.904;2023-05-11T01:04:11;97959.34;;;7.90;76.17
46392;BME280;32098;49.448;7.904;2023-05-11T01:06:59;97967.72;;;7.93;75.61
46392;BME280;32098;49.448;7.904;2023-05-11T01:09:42;97948.94;;;7.88;75.46
46392;BME280;32098;49.448;7.904;2023-05-11T01:12:21;97953.66;;;7.86;75.61
46392;BME280;32098;49.448;7.904;2023-05-11T01:15:23;97972.81;;;7.95;75.69
46392;BME280;32098;49.448;7.904;2023-05-11T01:18:01;97972.22;;;7.93;75.84
46392;BME280;32098;49.448;7.904;2023-05-11T01:20:31;97970.53;;;7.99;75.80
46392;BME280;32098;49.448;7.904;2023-05-11T01:29:12;97965.44;;;7.72;75.41
46392;BME280;32098;49.448;7.904;2023-05-11T01:31:53;97960.50;;;7.76;75.09
46392;BME280;32098;49.448;7.904;2023-05-11T01:34:23;97963.25;;;7.87;74.25
46392;BME280;32098;49.448;7.904;2023-05-11T01:36:57;97958.81;;;7.81;74.84
46392;BME280;32098;49.448;7.904;2023-05-11T01:39:29;97926.00;;;7.20;76.97
46392;BME280;32098;49.448;7.904;2023-05-11T01:42:04;97967.25;;;7.54;78.16
46392;BME280;32098;49.448;7.904;2023-05-11T01:44:33;97962.19;;;7.70;76.92
46392;BME280;32098;49.448;7.904;2023-05-11T01:47:02;97967.56;;;7.64;76.95
46392;BME280;32098;49.448;7.904;2023-05-11T01:49:32;97928.03;;;7.49;76.75
46392;BME280;32098;49.448;7.904;2023-05-11T01:52:01;97964.69;;;7.65;76.08
46392;BME280;32098;49.448;7.904;2023-05-11T01:54:29;97921.09;;;7.48;75.55
46392;BME280;32098;49.448;7.904;2023-05-11T01:56:58;97968.75;;;7.68;76.21
46392;BME280;32098;49.448;7.904;2023-05-11T01:59:26;97963.66;;;7.66;76.32
46392;BME280;32098;49.448;7.904;2023-05-11T02:01:53;97949.22;;;7.56;76.58
46392;BME280;32098;49.448;7.904;2023-05-11T02:04:21;97960.63;;;7.63;76.33
46392;BME280;32098;49.448;7.904;2023-05-11T02:06:49;97966.47;;;7.71;75.96
46392;BME280;32098;49.448;7.904;2023-05-11T02:09:18;97963.09;;;7.58;75.97
46392;BME280;32098;49.448;7.904;2023-05-11T02:11:47;97968.16;;;7.41;77.09
46392;BME280;32098;49.448;7.904;2023-05-11T02:14:17;97936.47;;;7.08;78.06
46392;BME280;32098;49.448;7.904;2023-05-11T02:16:47;97970.63;;;7.36;78.47
46392;BME280;32098;49.448;7.904;2023-05-11T02:19:16;97970.25;;;7.32;78.75
46392;BME280;32098;49.448;7.904;2023-05-11T02:21:44;97973.97;;;7.25;78.35
46392;BME280;32098;49.448;7.904;2023-05-11T02:24:12;97971.19;;;7.13;79.27
46392;BME280;32098;49.448;7.904;2023-05-11T02:26:40;97966.31;;;7.04;80.27
46392;BME280;32098;49.448;7.904;2023-05-11T02:29:06;97975.69;;;7.06;80.27
46392;BME280;32098;49.448;7.904;2023-05-11T02:31:39;97971.22;;;7.07;80.88
46392;BME280;32098;49.448;7.904;2023-05-11T02:34:20;97959.06;;;7.24;80.66
46392;BME280;32098;49.448;7.904;2023-05-11T02:36:51;97972.41;;;7.42;80.61
46392;BME280;32098;49.448;7.904;2023-05-11T02:39:20;97963.59;;;7.48;80.43
46392;BME280;32098;49.448;7.904;2023-05-11T02:41:54;97960.25;;;7.59;80.47
46392;BME280;32098;49.448;7.904;2023-05-11T02:44:23;97862.94;;;7.09;80.36
46392;BME280;32098;49.448;7.904;2023-05-11T02:46:53;97967.06;;;7.73;79.93
46392;BME280;32098;49.448;7.904;2023-05-11T02:49:22;97962.63;;;7.67;80.25
46392;BME280;32098;49.448;7.904;2023-05-11T02:51:52;97964.03;;;7.70;80.15
46392;BME280;32098;49.448;7.904;2023-05-11T02:54:21;97962.19;;;7.70;80.67
46392;BME280;32098;49.448;7.904;2023-05-11T02:56:51;97948.41;;;7.55;80.88
46392;BME280;32098;49.448;7.904;2023-05-11T02:59:18;97964.56;;;7.78;80.82
46392;BME280;32098;49.448;7.904;2023-05-11T03:01:46;97947.66;;;7.73;80.71
46392;BME280;32098;49.448;7.904;2023-05-11T03:04:13;97968.53;;;7.94;81.15
46392;BME280;32098;49.448;7.904;2023-05-11T03:06:40;97968.88;;;7.98;81.08
46392;BME280;32098;49.448;7.904;2023-05-11T03:09:08;97977.81;;;8.10;81.12
46392;BME280;32098;49.448;7.904;2023-05-11T03:11:41;97969.19;;;8.08;80.83
46392;BME280;32098;49.448;7.904;2023-05-11T03:14:08;97971.16;;;8.19;80.10
46392;BME280;32098;49.448;7.904;2023-05-11T03:16:36;97967.91;;;8.17;79.84
46392;BME280;32098;49.448;7.904;2023-05-11T03:19:05;97969.50;;;8.18;79.60
46392;BME280;32098;49.448;7.904;2023-05-11T03:21:33;97971.50;;;8.22;79.97
46392;BME280;32098;49.448;7.904;2023-05-11T03:24:04;97973.38;;;8.22;80.26
46392;BME280;32098;49.448;7.904;2023-05-11T03:26:32;97963.59;;;8.16;80.63
46392;BME280;32098;49.448;7.904;2023-05-11T03:29:01;97971.16;;;8.19;81.35
46392;BME280;32098;49.448;7.904;2023-05-11T03:31:28;97967.00;;;8.23;81.49
46392;BME280;32098;49.448;7.904;2023-05-11T03:33:57;97970.09;;;8.20;81.36
46392;BME280;32098;49.448;7.904;2023-05-11T03:36:25;97966.28;;;8.34;81.81
46392;BME280;32098;49.448;7.904;2023-05-11T03:38:53;97963.19;;;8.37;81.80
46392;BME280;32098;49.448;7.904;2023-05-11T03:41:30;97967.16;;;8.46;81.84
46392;BME280;32098;49.448;7.904;2023-05-11T03:44:02;97957.63;;;8.56;81.46
46392;BME280;32098;49.448;7.904;2023-05-11T03:46:31;97965.38;;;8.58;80.98
46392;BME280;32098;49.448;7.904;2023-05-11T03:49:01;97957.09;;;8.66;81.01
46392;BME280;32098;49.448;7.904;2023-05-11T03:51:30;97952.00;;;8.65;81.61
46392;BME280;32098;49.448;7.904;2023-05-11T03:53:58;97948.47;;;8.71;81.79
46392;BME280;32098;49.448;7.904;2023-05-11T03:56:25;97947.22;;;8.73;81.81
46392;BME280;32098;49.448;7.904;2023-05-11T03:58:52;97950.47;;;8.75;81.39
46392;BME280;32098;49.448;7.904;2023-05-11T04:01:19;97957.84;;;8.73;80.97
46392;BME280;32098;49.448;7.904;2023-05-11T04:03:51;97847.00;;;8.13;80.86
46392;BME280;32098;49.448;7.904;2023-05-11T04:06:19;97942.47;;;8.75;80.68
46392;BME280;32098;49.448;7.904;2023-05-11T04:08:53;97950.38;;;8.82;80.74
46392;BME280;32098;49.448;7.904;2023-05-11T04:11:19;97947.94;;;8.80;80.44
46392;BME280;32098;49.448;7.904;2023-05-11T04:13:47;97952.38;;;8.86;80.65
46392;BME280;32098;49.448;7.904;2023-05-11T04:16:13;97947.50;;;8.83;80.55
46392;BME280;32098;49.448;7.904;2023-05-11T04:18:40;97949.47;;;8.88;80.65
46392;BME280;32098;49.448;7.904;2023-05-11T04:21:06;97952.22;;;8.81;80.59
46392;BME280;32098;49.448;7.904;2023-05-11T04:23:33;97843.03;;;8.22;80.21
46392;BME280;32098;49.448;7.904;2023-05-11T04:25:59;97942.09;;;8.90;80.38
46392;BME280;32098;49.448;7.904;2023-05-11T04:28:26;97952.13;;;8.88;80.44
46392;BME280;32098;49.448;7.904;2023-05-11T04:30:56;97936.94;;;8.77;80.42
46392;BME280;32098;49.448;7.904;2023-05-11T04:33:23;97961.44;;;8.97;80.55
46392;BME280;32098;49.448;7.904;2023-05-11T04:35:54;97962.28;;;8.97;80.66
46392;BME280;32098;49.448;7.904;2023-05-11T04:38:23;97957.88;;;9.03;80.84
46392;BME280;32098;49.448;7.904;2023-05-11T04:40:49;97958.09;;;9.01;80.40
46392;BME280;32098;49.448;7.904;2023-05-11T04:43:19;97957.53;;;8.99;80.64
46392;BME280;32098;49.448;7.904;2023-05-11T04:45:49;97966.44;;;9.05;80.39
46392;BME280;32098;49.448;7.904;2023-05-11T04:48:21;97969.72;;;9.07;80.29
46392;BME280;32098;49.448;7.904;2023-05-11T04:50:47;97970.50;;;9.07;80.42
46392;BME280;32098;49.448;7.904;2023-05-11T04:53:16;97970.50;;;9.07;80.16
46392;BME280;32098;49.448;7.904;2023-05-11T04:55:44;97979.91;;;9.10;80.33
46392;BME280;32098;49.448;7.904;2023-05-11T04:58:11;97972.28;;;9.13;80.22
46392;BME280;32098;49.448;7.904;2023-05-11T05:00:37;97960.31;;;9.04;80.43
46392;BME280;32098;49.448;7.904;2023-05-11T05:03:04;97968.72;;;9.19;80.31
46392;BME280;32098;49.448;7.904;2023-05-11T05:05:31;97967.91;;;9.19;79.92
46392;BME280;32098;49.448;7.904;2023-05-11T05:07:57;97973.56;;;9.22;79.98
46392;BME280;32098;49.448;7.904;2023-05-11T05:10:24;97978.00;;;9.29;79.83
46392;BME280;32098;49.448;7.904;2023-05-11T05:12:50;97977.78;;;9.30;79.60
46392;BME280;32098;49.448;7.904;2023-05-11T05:15:17;97974.53;;;9.28;79.63
46392;BME280;32098;49.448;7.904;2023-05-11T05:17:43;97985.91;;;9.35;79.45
46392;BME280;32098;49.448;7.904;2023-05-11T05:20:11;97958.06;;;9.19;79.49
46392;BME280;32098;49.448;7.904;2023-05-11T05:22:37;97987.78;;;9.46;79.34
46392;BME280;32098;49.448;7.904;2023-05-11T05:25:04;97983.28;;;9.47;79.43
46392;BME280;32098;49.448;7.904;2023-05-11T05:27:31;97976.88;;;9.48;78.99
46392;BME280;32098;49.448;7.904;2023-05-11T05:30:03;97978.91;;;9.52;79.08
46392;BME280;32098;49.448;7.904;2023-05-11T05:32:29;97987.81;;;9.58;79.09
46392;BME280;32098;49.448;7.904;2023-05-11T05:34:56;97980.19;;;9.61;79.03
46392;BME280;32098;49.448;7.904;2023-05-11T05:37:22;97976.47;;;9.62;78.13
46392;BME280;32098;49.448;7.904;2023-05-11T05:39:49;97990.41;;;9.64;78.38
46392;BME280;32098;49.448;7.904;2023-05-11T05:42:15;97983.22;;;9.65;77.98
46392;BME280;32098;49.448;7.904;2023-05-11T05:44:43;97990.41;;;9.64;78.08
46392;BME280;32098;49.448;7.904;2023-05-11T05:47:09;97983.41;;;9.63;78.00
46392;BME280;32098;49.448;7.904;2023-05-11T05:49:36;97989.25;;;9.72;78.23
46392;BME280;32098;49.448;7.904;2023-05-11T05:52:04;97987.53;;;9.77;77.69
46392;BME280;32098;49.448;7.904;2023-05-11T05:54:31;97987.03;;;9.80;77.48
46392;BME280;32098;49.448;7.904;2023-05-11T05:56:58;97986.13;;;9.86;77.12
46392;BME280;32098;49.448;7.904;2023-05-11T05:59:25;97969.06;;;9.76;76.56
46392;BME280;32098;49.448;7.904;2023-05-11T06:01:55;97989.81;;;9.85;76.37
46392;BME280;32098;49.448;7.904;2023-05-11T06:04:22;98001.44;;;9.91;76.02
46392;BME280;32098;49.448;7.904;2023-05-11T06:06:49;98003.66;;;9.94;76.26
46392;BME280;32098;49.448;7.904;2023-05-11T06:09:16;97987.19;;;9.97;76.15
46392;BME280;32098;49.448;7.904;2023-05-11T06:11:43;97998.44;;;9.99;76.19
46392;BME280;32098;49.448;7.904;2023-05-11T06:14:09;98005.16;;;10.02;75.82
46392;BME280;32098;49.448;7.904;2023-05-11T06:16:36;98008.31;;;10.10;76.04
46392;BME280;32098;49.448;7.904;2023-05-11T06:19:03;97979.84;;;9.93;75.51
46392;BME280;32098;49.448;7.904;2023-05-11T06:21:30;98014.72;;;10.21;75.63
46392;BME280;32098;49.448;7.904;2023-05-11T06:23:57;98012.16;;;10.26;75.61
46392;BME280;32098;49.448;7.904;2023-05-11T06:26:26;97992.78;;;10.19;74.96
46392;BME280;32098;49.448;7.904;2023-05-11T06:28:54;97998.34;;;10.40;75.53
46392;BME280;32098;49.448;7.904;2023-05-11T06:31:21;97996.59;;;10.46;75.40
46392;BME280;32098;49.448;7.904;2023-05-11T06:33:50;98000.44;;;10.50;74.79
46392;BME280;32098;49.448;7.904;2023-05-11T06:36:21;97999.63;;;10.49;73.45
46392;BME280;32098;49.448;7.904;2023-05-11T06:38:48;98006.00;;;10.48;73.09
46392;BME280;32098;49.448;7.904;2023-05-11T06:41:14;97991.38;;;10.39;72.77
46392;BME280;32098;49.448;7.904;2023-05-11T06:43:41;98004.97;;;10.49;72.82
46392;BME280;32098;49.448;7.904;2023-05-11T06:46:18;98005.53;;;10.52;72.62
46392;BME280;32098;49.448;7.904;2023-05-11T06:48:45;98006.00;;;10.60;73.23
46392;BME280;32098;49.448;7.904;2023-05-11T06:51:11;97999.38;;;10.63;72.21
46392;BME280;32098;49.448;7.904;2023-05-11T06:53:38;97999.13;;;10.64;72.20
46392;BME280;32098;49.448;7.904;2023-05-11T06:56:04;97997.94;;;10.72;72.04
46392;BME280;32098;49.448;7.904;2023-05-11T06:58:31;98002.34;;;10.78;71.69
46392;BME280;32098;49.448;7.904;2023-05-11T07:00:58;97995.28;;;10.72;71.06
46392;BME280;32098;49.448;7.904;2023-05-11T07:03:24;97997.03;;;10.66;71.24
46392;BME280;32098;49.448;7.904;2023-05-11T07:05:51;98001.44;;;10.72;71.28
46392;BME280;32098;49.448;7.904;2023-05-11T07:08:17;98001.66;;;10.71;71.03
46392;BME280;32098;49.448;7.904;2023-05-11T07:10:44;97997.00;;;10.78;70.80
46392;BME280;32098;49.448;7.904;2023-05-11T07:13:10;97991.63;;;10.89;71.04
46392;BME280;32098;49.448;7.904;2023-05-11T07:15:37;98002.53;;;10.99;70.92
46392;BME280;32098;49.448;7.904;2023-05-11T07:18:03;97999.47;;;11.07;70.22
46392;BME280;32098;49.448;7.904;2023-05-11T07:20:30;98005.72;;;11.13;70.05
46392;BME280;32098;49.448;7.904;2023-05-11T07:22:57;97995.00;;;11.25;70.48
46392;BME280;32098;49.448;7.904;2023-05-11T07:25:24;98002.66;;;11.33;70.22
46392;BME280;32098;49.448;7.904;2023-05-11T07:27:51;97999.84;;;11.39;69.52
46392;BME280;32098;49.448;7.904;2023-05-11T07:30:18;97996.22;;;11.45;68.08
46392;BME280;32098;49.448;7.904;2023-05-11T07:32:45;97996.47;;;11.60;69.09
46392;BME280;32098;49.448;7.904;2023-05-11T07:35:11;97999.81;;;11.67;68.08
46392;BME280;32098;49.448;7.904;2023-05-11T07:37:38;98003.13;;;11.74;68.02
46392;BME280;32098;49.448;7.904;2023-05-11T07:40:05;98004.81;;;11.81;67.66
46392;BME280;32098;49.448;7.904;2023-05-11T07:42:32;98006.63;;;11.92;67.75
46392;BME280;32098;49.448;7.904;2023-05-11T07:44:58;97974.91;;;11.84;68.43
46392;BME280;32098;49.448;7.904;2023-05-11T07:47:25;97989.91;;;12.01;67.85
46392;BME280;32098;49.448;7.904;2023-05-11T07:49:52;98006.69;;;11.97;66.50
46392;BME280;32098;49.448;7.904;2023-05-11T07:52:18;97992.91;;;12.05;67.22
46392;BME280;32098;49.448;7.904;2023-05-11T07:54:45;97994.03;;;12.09;67.03
46392;BME280;32098;49.448;7.904;2023-05-11T07:57:11;97989.84;;;12.13;66.69
46392;BME280;32098;49.448;7.904;2023-05-11T07:59:39;98001.06;;;12.31;74.18
46392;BME280;32098;49.448;7.904;2023-05-11T08:02:07;97992.19;;;12.64;75.86
46392;BME280;32098;49.448;7.904;2023-05-11T08:04:38;97992.19;;;12.86;67.31
46392;BME280;32098;49.448;7.904;2023-05-11T08:07:04;97994.00;;;12.80;65.49
46392;BME280;32098;49.448;7.904;2023-05-11T08:09:31;97998.84;;;12.83;65.52
46392;BME280;32098;49.448;7.904;2023-05-11T08:11:58;97991.06;;;12.82;65.41
46392;BME280;32098;49.448;7.904;2023-05-11T08:14:26;97996.81;;;12.90;64.94
46392;BME280;32098;49.448;7.904;2023-05-11T08:16:53;97990.38;;;12.91;65.29
46392;BME280;32098;49.448;7.904;2023-05-11T08:19:20;97974.44;;;12.80;64.42
46392;BME280;32098;49.448;7.904;2023-05-11T08:21:46;97960.72;;;12.76;64.78
46392;BME280;32098;49.448;7.904;2023-05-11T08:24:13;97983.22;;;12.97;64.36
46392;BME280;32098;49.448;7.904;2023-05-11T08:26:39;97992.06;;;12.97;64.36
46392;BME280;32098;49.448;7.904;2023-05-11T08:29:06;97999.16;;;13.09;64.86
46392;BME280;32098;49.448;7.904;2023-05-11T08:31:33;97994.38;;;13.11;63.24
46392;BME280;32098;49.448;7.904;2023-05-11T08:33:59;97986.94;;;13.18;62.66
46392;BME280;32098;49.448;7.904;2023-05-11T08:36:26;97994.00;;;13.29;62.39
46392;BME280;32098;49.448;7.904;2023-05-11T08:38:52;97993.66;;;13.20;62.11
46392;BME280;32098;49.448;7.904;2023-05-11T08:41:24;97991.56;;;13.00;62.41
46392;BME280;32098;49.448;7.904;2023-05-11T08:43:51;98001.34;;;13.12;62.95
46392;BME280;32098;49.448;7.904;2023-05-11T08:46:20;98001.44;;;13.22;62.36
46392;BME280;32098;49.448;7.904;2023-05-11T08:48:49;98004.69;;;13.24;61.86
46392;BME280;32098;49.448;7.904;2023-05-11T08:51:15;97980.31;;;13.25;62.01
46392;BME280;32098;49.448;7.904;2023-05-11T08:53:42;97995.00;;;13.44;62.30
46392;BME280;32098;49.448;7.904;2023-05-11T08:56:09;97975.25;;;13.29;60.12
46392;BME280;32098;49.448;7.904;2023-05-11T08:58:37;97948.84;;;13.16;61.10
46392;BME280;32098;49.448;7.904;2023-05-11T09:01:05;97996.34;;;13.47;60.96
46392;BME280;32098;49.448;7.904;2023-05-11T09:03:34;97996.75;;;13.55;60.51
46392;BME280;32098;49.448;7.904;2023-05-11T09:06:03;97995.53;;;13.68;60.67
46392;BME280;32098;49.448;7.904;2023-05-11T09:08:36;97988.03;;;13.70;59.42
46392;BME280;32098;49.448;7.904;2023-05-11T09:11:03;97995.03;;;13.76;59.16
46392;BME280;32098;49.448;7.904;2023-05-11T09:13:31;97985.69;;;13.52;59.49
46392;BME280;32098;49.448;7.904;2023-05-11T09:15:58;97992.53;;;13.64;60.01
46392;BME280;32098;49.448;7.904;2023-05-11T09:18:25;97998.66;;;13.60;58.64
46392;BME280;32098;49.448;7.904;2023-05-11T09:20:52;97995.19;;;13.38;60.52
46392;BME280;32098;49.448;7.904;2023-05-11T09:23:24;97998.66;;;13.60;61.53
46392;BME280;32098;49.448;7.904;2023-05-11T09:25:51;97993.31;;;13.60;61.39
46392;BME280;32098;49.448;7.904;2023-05-11T09:28:23;97999.25;;;13.67;61.03
46392;BME280;32098;49.448;7.904;2023-05-11T09:30:52;97905.50;;;13.29;60.73
46392;BME280;32098;49.448;7.904;2023-05-11T09:33:23;97999.53;;;13.97;59.38
46392;BME280;32098;49.448;7.904;2023-05-11T09:35:51;97993.06;;;13.93;58.95
46392;BME280;32098;49.448;7.904;2023-05-11T09:38:19;97996.09;;;14.07;59.52
46392;BME280;32098;49.448;7.904;2023-05-11T09:40:50;97998.53;;;14.08;58.86
46392;BME280;32098;49.448;7.904;2023-05-11T09:43:25;97992.47;;;14.23;59.59
46392;BME280;32098;49.448;7.904;2023-05-11T09:45:54;97995.41;;;14.21;58.55
46392;BME280;32098;49.448;7.904;2023-05-11T09:48:27;97991.66;;;14.22;58.13
46392;BME280;32098;49.448;7.904;2023-05-11T09:50:59;97990.41;;;14.35;58.78
46392;BME280;32098;49.448;7.904;2023-05-11T09:53:34;97985.09;;;14.03;59.93
46392;BME280;32098;49.448;7.904;2023-05-11T09:56:01;97985.31;;;14.02;59.63
46392;BME280;32098;49.448;7.904;2023-05-11T09:58:43;97989.34;;;13.99;60.20
46392;BME280;32098;49.448;7.904;2023-05-11T10:01:11;97988.56;;;14.04;60.27
46392;BME280;32098;49.448;7.904;2023-05-11T10:03:47;97988.34;;;14.10;59.21
46392;BME280;32098;49.448;7.904;2023-05-11T10:06:14;97991.09;;;14.20;58.26
46392;BME280;32098;49.448;7.904;2023-05-11T10:08:44;97985.97;;;14.19;58.34
46392;BME280;32098;49.448;7.904;2023-05-11T10:11:11;97994.34;;;14.22;58.13
46392;BME280;32098;49.448;7.904;2023-05-11T10:13:38;97990.06;;;14.26;57.50
46392;BME280;32098;49.448;7.904;2023-05-11T10:16:05;97990.38;;;14.30;56.81
46392;BME280;32098;49.448;7.904;2023-05-11T10:18:35;97993.06;;;14.30;56.87
46392;BME280;32098;49.448;7.904;2023-05-11T10:21:04;97984.19;;;14.29;56.96
46392;BME280;32098;49.448;7.904;2023-05-11T10:23:30;97982.94;;;14.05;56.79
46392;BME280;32098;49.448;7.904;2023-05-11T10:25:59;97984.06;;;13.78;56.86
46392;BME280;32098;49.448;7.904;2023-05-11T10:28:26;97984.75;;;13.63;58.65
46392;BME280;32098;49.448;7.904;2023-05-11T10:30:53;97982.81;;;13.58;58.48
46392;BME280;32098;49.448;7.904;2023-05-11T10:33:20;97975.56;;;13.59;59.32
46392;BME280;32098;49.448;7.904;2023-05-11T10:35:47;97959.88;;;13.73;59.80
46392;BME280;32098;49.448;7.904;2023-05-11T10:38:14;97971.66;;;14.03;59.58
46392;BME280;32098;49.448;7.904;2023-05-11T10:40:42;97968.53;;;14.21;58.05
46392;BME280;32098;49.448;7.904;2023-05-11T10:54:28;97960.75;;;14.67;56.31
46392;BME280;32098;49.448;7.904;2023-05-11T10:57:27;97966.19;;;14.77;57.66
46392;BME280;32098;49.448;7.904;2023-05-11T11:00:20;97968.41;;;14.95;57.26
46392;BME280;32098;49.448;7.904;2023-05-11T11:02:57;97960.41;;;15.10;56.18
46392;BME280;32098;49.448;7.904;2023-05-11T11:05:33;97966.78;;;14.94;53.45
46392;BME280;32098;49.448;7.904;2023-05-11T11:08:01;97970.84;;;15.07;54.27
46392;BME280;32098;49.448;7.904;2023-05-11T11:10:33;97956.09;;;15.14;54.28
46392;BME280;32098;49.448;7.904;2023-05-11T11:13:10;97958.81;;;15.29;53.59
46392;BME280;32098;49.448;7.904;2023-05-11T11:18:29;97959.94;;;15.38;53.63
46392;BME280;32098;49.448;7.904;2023-05-11T11:20:57;97962.09;;;15.46;54.37
46392;BME280;32098;49.448;7.904;2023-05-11T11:23:40;97957.53;;;15.57;53.49
46392;BME280;32098;49.448;7.904;2023-05-11T11:26:08;97953.94;;;15.16;55.02
46392;BME280;32098;49.448;7.904;2023-05-11T11:31:24;97950.75;;;15.34;54.38
46392;BME280;32098;49.448;7.904;2023-05-11T11:33:52;97940.25;;;15.28;51.67
46392;BME280;32098;49.448;7.904;2023-05-11T11:39:21;97934.38;;;15.46;52.72
46392;BME280;32098;49.448;7.904;2023-05-11T11:42:03;97944.38;;;15.66;51.52
46392;BME280;32098;49.448;7.904;2023-05-11T11:44:29;97941.69;;;15.76;51.52
46392;BME280;32098;49.448;7.904;2023-05-11T11:47:15;97943.84;;;15.84;50.92
46392;BME280;32098;49.448;7.904;2023-05-11T11:49:43;97938.47;;;15.64;51.34
46392;BME280;32098;49.448;7.904;2023-05-11T11:52:54;97930.38;;;15.64;51.87
46392;BME280;32098;49.448;7.904;2023-05-11T11:55:02;97929.56;;;15.83;51.13
46392;BME280;32098;49.448;7.904;2023-05-11T12:00:05;97915.28;;;15.52;51.66
46392;BME280;32098;49.448;7.904;2023-05-11T12:02:43;97915.28;;;15.78;50.91
46392;BME280;32098;49.448;7.904;2023-05-11T12:05:19;97921.22;;;15.75;50.81
46392;BME280;32098;49.448;7.904;2023-05-11T12:07:49;97927.69;;;15.64;50.79
46392;BME280;32098;49.448;7.904;2023-05-11T12:10:18;97914.75;;;15.76;51.16
46392;BME280;32098;49.448;7.904;2023-05-11T12:12:46;97904.78;;;15.86;52.30
46392;BME280;32098;49.448;7.904;2023-05-11T12:15:23;97914.47;;;15.82;50.79
46392;BME280;32098;49.448;7.904;2023-05-11T12:17:50;97906.66;;;15.96;51.23
46392;BME280;32098;49.448;7.904;2023-05-11T12:20:18;97910.13;;;16.11;51.44
46392;BME280;32098;49.448;7.904;2023-05-11T12:22:46;97905.50;;;16.37;51.12
46392;BME280;32098;49.448;7.904;2023-05-11T12:25:17;97904.88;;;16.60;52.12
46392;BME280;32098;49.448;7.904;2023-05-11T12:27:52;97900.22;;;16.81;51.14
46392;BME280;32098;49.448;7.904;2023-05-11T12:30:25;97900.94;;;16.92;48.94
46392;BME280;32098;49.448;7.904;2023-05-11T12:32:52;97898.00;;;16.93;48.13
46392;BME280;32098;49.448;7.904;2023-05-11T12:35:27;97896.31;;;17.02;48.67
46392;BME280;32098;49.448;7.904;2023-05-11T12:37:55;97878.38;;;16.77;48.15
46392;BME280;32098;49.448;7.904;2023-05-11T12:40:23;97821.41;;;16.40;48.54
46392;BME280;32098;49.448;7.904;2023-05-11T12:42:54;97884.81;;;16.81;47.90
46392;BME280;32098;49.448;7.904;2023-05-11T12:45:22;97892.63;;;16.88;48.04
46392;BME280;32098;49.448;7.904;2023-05-11T12:47:54;97885.91;;;16.86;48.04
46392;BME280;32098;49.448;7.904;2023-05-11T12:50:21;97874.34;;;16.75;47.73
46392;BME280;32098;49.448;7.904;2023-05-11T12:52:48;97885.09;;;16.85;47.35
46392;BME280;32098;49.448;7.904;2023-05-11T12:55:29;97878.34;;;16.82;47.00
46392;BME280;32098;49.448;7.904;2023-05-11T12:58:11;97878.00;;;16.94;47.61
46392;BME280;32098;49.448;7.904;2023-05-11T13:00:55;97875.06;;;16.96;47.46
46392;BME280;32098;49.448;7.904;2023-05-11T13:06:10;97877.78;;;16.91;47.15
46392;BME280;32098;49.448;7.904;2023-05-11T13:08:43;97872.34;;;16.96;47.83
46392;BME280;32098;49.448;7.904;2023-05-11T13:11:20;97850.88;;;16.80;47.22
46392;BME280;32098;49.448;7.904;2023-05-11T13:13:55;97862.19;;;16.77;47.03
46392;BME280;32098;49.448;7.904;2023-05-11T13:18:58;97859.66;;;16.47;47.12
46392;BME280;32098;49.448;7.904;2023-05-11T13:21:25;97869.09;;;16.45;48.55
46392;BME280;32098;49.448;7.904;2023-05-11T13:23:52;97863.13;;;16.53;48.04
46392;BME280;32098;49.448;7.904;2023-05-11T13:26:23;97809.63;;;16.16;48.35
46392;BME280;32098;49.448;7.904;2023-05-11T13:28:51;97818.50;;;16.16;48.33
46392;BME280;32098;49.448;7.904;2023-05-11T13:31:50;97858.28;;;16.50;48.86
46392;BME280;32098;49.448;7.904;2023-05-11T13:34:18;97845.56;;;16.60;49.46
46392;BME280;32098;49.448;7.904;2023-05-11T13:36:45;97852.59;;;16.61;49.07
46392;BME280;32098;49.448;7.904;2023-05-11T13:39:12;97842.03;;;15.91;49.41
46392;BME280;32098;49.448;7.904;2023-05-11T13:41:38;97859.53;;;15.98;50.34
46392;BME280;32098;49.448;7.904;2023-05-11T13:44:05;97858.44;;;15.89;50.45
46392;BME280;32098;49.448;7.904;2023-05-11T13:46:34;97853.66;;;15.56;50.81
46392;BME280;32098;49.448;7.904;2023-05-11T13:49:01;97848.00;;;15.47;51.05